Time;durP1;ratioP1;P1;durP2;ratioP2;P2;SDS_P1;SDS_P2;PMS_P1;PMS_P2;Temp;Humidity;BMP_temperature;BMP_pressure;BME280_temperature;BME280_humidity;BME280_pressure;Samples;Min_cycle;Max_cycle;Signal;HPM_P1;HPM_P2
2022/05/24 00:01:10;;;;;;;1.48;0.60;;;11.40;99.90;;;;;;5015586;28;20042;-74
2022/05/24 00:03:39;;;;;;;1.52;0.63;;;11.40;99.90;;;;;;5015561;28;20053;-76
2022/05/24 00:06:08;;;;;;;;;;;11.40;99.90;;;;;;5014979;28;20061;-76
2022/05/24 00:08:36;;;;;;;0.88;0.40;;;11.30;99.90;;;;;;5015831;28;19929;-76
2022/05/24 00:11:04;;;;;;;2.03;0.60;;;11.30;99.90;;;;;;5014689;28;20050;-76
2022/05/24 00:13:31;;;;;;;3.83;0.40;;;11.20;99.90;;;;;;5015627;28;20041;-75
2022/05/24 00:15:59;;;;;;;0.93;0.50;;;11.20;99.90;;;;;;5015741;28;20449;-76
2022/05/24 00:18:28;;;;;;;;;;;11.20;99.90;;;;;;4997356;28;20049;-75
2022/05/24 00:20:58;;;;;;;1.42;0.50;;;11.20;99.90;;;;;;5015614;28;19941;-76
2022/05/24 00:23:28;;;;;;;2.55;0.40;;;11.20;99.90;;;;;;4998257;28;20042;-75
2022/05/24 00:26:00;;;;;;;1.73;0.52;;;11.20;99.90;;;;;;5014210;28;20053;-76
2022/05/24 00:28:29;;;;;;;1.25;0.60;;;11.10;99.90;;;;;;4998394;28;20042;-74
2022/05/24 00:30:58;;;;;;;0.80;0.50;;;11.10;99.90;;;;;;5016158;28;20046;-77
2022/05/24 00:33:26;;;;;;;1.95;0.73;;;11.10;99.90;;;;;;5049969;28;20057;-76
2022/05/24 00:35:54;;;;;;;1.00;0.50;;;11.10;99.90;;;;;;5034885;28;20052;-76
2022/05/24 00:38:30;;;;;;;2.00;0.60;;;11.10;99.90;;;;;;5032873;28;20064;-75
2022/05/24 00:41:06;;;;;;;1.95;0.80;;;11.10;99.90;;;;;;5034836;28;20064;-77
2022/05/24 00:43:41;;;;;;;1.77;0.77;;;11.20;99.90;;;;;;5034813;28;20052;-75
2022/05/24 00:46:14;;;;;;;1.38;0.70;;;11.20;99.90;;;;;;5032863;28;20476;-76
2022/05/24 00:49:04;;;;;;;3.65;0.80;;;11.20;99.90;;;;;;5034719;28;20049;-76
2022/05/24 00:51:38;;;;;;;2.13;0.90;;;11.10;99.90;;;;;;5034086;28;20052;-76
2022/05/24 00:54:06;;;;;;;3.58;1.00;;;11.20;99.90;;;;;;5034445;28;20086;-75
2022/05/24 00:56:45;;;;;;;1.95;1.00;;;11.10;99.90;;;;;;5034707;28;20052;-76
2022/05/24 00:59:32;;;;;;;1.65;0.98;;;11.20;99.90;;;;;;5033505;28;20125;-76
2022/05/24 01:02:00;;;;;;;1.80;0.93;;;11.20;99.90;;;;;;5034591;28;20050;-76
2022/05/24 01:04:28;;;;;;;3.90;1.10;;;11.10;99.90;;;;;;5033415;28;20388;-77
2022/05/24 01:06:56;;;;;;;3.20;1.20;;;11.10;99.90;;;;;;5034802;28;20054;-77
2022/05/24 01:09:41;;;;;;;3.15;1.08;;;11.00;99.90;;;;;;5034651;28;20049;-75
2022/05/24 01:12:15;;;;;;;2.45;1.00;;;11.00;99.90;;;;;;5032532;28;20050;-75
2022/05/24 01:14:43;;;;;;;2.00;1.15;;;11.00;99.90;;;;;;5034540;28;20456;-75
2022/05/24 01:17:11;;;;;;;1.35;1.00;;;10.90;99.90;;;;;;5035063;28;20045;-77
2022/05/24 01:19:43;;;;;;;2.50;1.08;;;10.90;99.90;;;;;;5032588;28;20463;-75
2022/05/24 01:22:30;;;;;;;1.92;1.08;;;10.90;99.90;;;;;;5033610;28;20061;-75
2022/05/24 01:25:12;;;;;;;3.63;1.23;;;10.80;99.90;;;;;;5033762;28;20041;-77
2022/05/24 01:27:40;;;;;;;2.50;1.20;;;10.90;99.90;;;;;;5034608;28;20053;-74
2022/05/24 01:30:10;;;;;;;5.45;1.23;;;10.90;99.90;;;;;;5034441;28;20064;-77
2022/05/24 01:38:15;;;;;;;3.22;1.05;;;10.80;99.90;;;;;;4996519;28;20050;-75
2022/05/24 01:40:43;;;;;;;2.03;1.10;;;10.80;99.90;;;;;;5014824;28;20045;-77
2022/05/24 01:43:11;;;;;;;3.00;1.20;;;10.80;99.90;;;;;;5014562;28;20041;-76
2022/05/24 01:45:42;;;;;;;;;;;10.70;99.90;;;;;;4980425;28;20053;-77
2022/05/24 01:48:16;;;;;;;3.28;1.10;;;10.70;99.90;;;;;;5014565;28;19928;-76
2022/05/24 01:50:46;;;;;;;3.30;1.33;;;10.70;99.90;;;;;;5014528;28;20057;-77
2022/05/24 01:53:21;;;;;;;4.85;1.20;;;10.70;99.90;;;;;;5013495;28;20053;-75
2022/05/24 01:55:56;;;;;;;2.72;1.30;;;10.60;99.90;;;;;;5014262;28;20038;-77
2022/05/24 01:58:29;;;;;;;3.60;1.10;;;10.60;99.90;;;;;;5013774;28;20046;-74
2022/05/24 02:01:09;;;;;;;4.03;1.20;;;10.60;99.90;;;;;;5014484;28;20461;-75
2022/05/24 02:03:38;;;;;;;4.97;1.13;;;10.50;99.90;;;;;;4997622;28;20376;-77
2022/05/24 02:06:20;;;;;;;3.15;1.20;;;10.40;99.90;;;;;;5014516;28;20050;-75
2022/05/24 02:08:47;;;;;;;1.92;1.02;;;10.40;99.90;;;;;;5017951;28;20046;-77
2022/05/24 02:11:20;;;;;;;1.58;1.00;;;10.30;99.90;;;;;;5016570;28;20057;-77
2022/05/24 02:13:50;;;;;;;3.70;1.08;;;10.30;99.90;;;;;;5017835;28;20365;-76
2022/05/24 02:16:23;;;;;;;2.92;1.15;;;10.20;99.90;;;;;;5017715;28;20057;-76
2022/05/24 02:18:54;;;;;;;3.08;1.17;;;10.20;99.90;;;;;;5016499;28;20373;-76
2022/05/24 02:21:23;;;;;;;2.05;0.85;;;10.10;99.90;;;;;;5017855;28;20401;-77
2022/05/24 02:23:51;;;;;;;2.58;1.10;;;10.00;99.90;;;;;;5017452;28;20042;-76
2022/05/24 02:26:19;;;;;;;;;;;10.00;99.90;;;;;;5016914;28;20045;-75
2022/05/24 02:28:51;;;;;;;1.85;0.80;;;10.00;99.90;;;;;;5017490;28;19921;-77
2022/05/24 02:31:22;;;;;;;1.20;0.80;;;9.90;99.90;;;;;;5016038;28;20674;-75
2022/05/24 02:33:50;;;;;;;4.32;0.88;;;9.90;99.90;;;;;;5000367;28;20057;-75
2022/05/24 02:36:18;;;;;;;1.83;0.80;;;9.90;99.90;;;;;;5017652;28;20049;-75
2022/05/24 02:38:46;;;;;;;;;;;9.90;99.90;;;;;;4999522;28;20050;-75
2022/05/24 02:41:29;;;;;;;2.85;0.98;;;9.80;99.90;;;;;;5017228;28;20356;-75
2022/05/24 02:44:12;;;;;;;2.15;0.90;;;9.80;99.90;;;;;;5017122;28;20050;-74
2022/05/24 02:46:43;;;;;;;1.70;0.68;;;9.70;99.90;;;;;;5015981;28;20476;-74
2022/05/24 02:49:11;;;;;;;1.20;0.60;;;9.70;99.90;;;;;;5017312;28;20053;-74
2022/05/24 02:51:41;;;;;;;2.30;0.90;;;9.70;99.90;;;;;;5015841;28;20499;-77
2022/05/24 02:54:09;;;;;;;4.22;0.68;;;9.70;99.90;;;;;;4999977;28;20045;-76
2022/05/24 02:56:36;;;;;;;1.98;0.50;;;9.70;99.90;;;;;;5017201;28;20056;-75
2022/05/24 02:59:04;;;;;;;0.98;0.52;;;9.70;99.90;;;;;;5016009;28;20041;-74
2022/05/24 03:01:32;;;;;;;;;;;9.70;99.90;;;;;;5017293;28;20053;-74
2022/05/24 03:04:01;;;;;;;1.25;0.60;;;9.80;99.90;;;;;;5016935;28;20443;-75
2022/05/24 03:09:33;;;;;;;2.38;0.70;;;9.70;99.90;;;;;;5015496;28;20060;-75
2022/05/24 03:09:35;;;;;;;2.03;0.70;;;9.80;99.90;;;;;;4999531;28;20054;-75
2022/05/24 03:14:52;;;;;;;1.13;0.50;;;9.90;99.90;;;;;;5016443;28;20046;-75
2022/05/24 03:17:21;;;;;;;1.80;0.57;;;9.90;99.90;;;;;;5016005;28;20518;-76
2022/05/24 03:19:49;;;;;;;1.25;0.60;;;10.00;99.90;;;;;;4998541;28;20046;-75
2022/05/24 03:22:17;;;;;;;1.58;0.60;;;10.00;99.90;;;;;;5016774;28;20053;-75
2022/05/24 03:24:44;;;;;;;1.30;0.60;;;10.10;99.90;;;;;;5015485;28;20372;-75
2022/05/24 03:27:13;;;;;;;;;;;10.10;99.90;;;;;;5016888;28;20483;-75
2022/05/24 03:29:43;;;;;;;1.02;0.50;;;10.10;99.90;;;;;;5016473;28;20355;-77
2022/05/24 03:32:13;;;;;;;0.90;0.50;;;10.10;99.90;;;;;;5015029;28;20065;-76
2022/05/24 03:34:41;;;;;;;1.52;0.50;;;10.20;99.90;;;;;;5016527;28;20050;-76
2022/05/24 03:37:09;;;;;;;1.00;0.40;;;10.20;99.90;;;;;;5015988;28;20049;-77
2022/05/24 03:39:37;;;;;;;1.58;0.60;;;10.20;99.90;;;;;;5015010;28;20046;-75
2022/05/24 03:42:05;;;;;;;1.02;0.57;;;10.20;99.90;;;;;;5016308;28;20054;-76
2022/05/24 03:44:33;;;;;;;;;;;10.20;99.90;;;;;;5015267;28;20053;-75
2022/05/24 03:47:00;;;;;;;2.08;0.50;;;10.20;99.90;;;;;;5015896;28;19928;-76
2022/05/24 03:49:28;;;;;;;3.00;0.50;;;10.30;99.90;;;;;;5015992;28;20045;-76
2022/05/24 03:51:55;;;;;;;1.42;0.50;;;10.30;99.90;;;;;;4997923;28;20054;-76
2022/05/24 03:54:23;;;;;;;1.65;0.55;;;10.30;99.90;;;;;;5015746;28;20049;-76
2022/05/24 03:59:37;;;;;;;1.73;0.60;;;10.30;99.90;;;;;;5014766;28;20396;-77
2022/05/24 04:02:04;;;;;;;1.42;0.63;;;10.40;99.90;;;;;;5015848;28;20055;-77
2022/05/24 04:04:32;;;;;;;2.38;0.70;;;10.40;99.90;;;;;;5014713;28;20048;-76
2022/05/24 04:07:00;;;;;;;3.50;0.77;;;10.40;99.90;;;;;;5015608;28;20061;-80
2022/05/24 04:09:27;;;;;;;2.40;0.63;;;10.50;99.90;;;;;;5015514;28;20480;-80
2022/05/24 04:11:55;;;;;;;1.80;0.77;;;10.50;99.90;;;;;;5015041;28;20042;-78
2022/05/24 04:14:23;;;;;;;6.65;1.20;;;10.50;99.90;;;;;;5015428;28;20050;-78
2022/05/24 04:16:52;;;;;;;6.38;1.63;;;10.60;99.90;;;;;;5015324;28;20384;-78
2022/05/24 04:19:20;;;;;;;5.72;1.63;;;10.50;99.90;;;;;;5014220;28;20049;-78
2022/05/24 04:21:47;;;;;;;4.25;1.52;;;10.40;99.90;;;;;;4998257;28;20495;-79
2022/05/24 04:24:18;;;;;;;3.20;1.45;;;10.30;99.90;;;;;;5015279;28;20468;-80
2022/05/24 04:26:47;;;;;;;3.67;1.98;;;10.20;99.90;;;;;;5014937;28;20053;-81
2022/05/24 04:29:14;;;;;;;6.88;1.88;;;10.10;99.90;;;;;;5014429;28;20050;-80
2022/05/24 04:31:42;;;;;;;7.90;2.17;;;10.10;99.90;;;;;;5014181;28;20468;-80
2022/05/24 04:34:14;;;;;;;6.00;2.85;;;10.00;99.90;;;;;;5015098;28;20065;-79
2022/05/24 04:36:41;;;;;;;9.35;2.67;;;10.00;99.90;;;;;;5015086;28;20049;-78
2022/05/24 04:39:09;;;;;;;8.27;2.80;;;10.00;99.90;;;;;;5014075;28;20057;-78
2022/05/24 04:44:23;;;;;;;6.28;2.72;;;9.90;99.90;;;;;;5013994;28;20042;-77
2022/05/24 04:47:08;;;;;;;9.32;3.78;;;10.00;99.90;;;;;;5014947;28;20471;-77
2022/05/24 04:49:39;;;;;;;8.95;4.38;;;10.10;99.90;;;;;;5015247;28;20049;-78
2022/05/24 04:52:13;;;;;;;5.82;3.97;;;10.10;99.90;;;;;;5014035;28;20049;-79
2022/05/24 04:54:42;;;;;;;10.65;4.13;;;10.10;99.90;;;;;;5014880;28;20055;-79
2022/05/24 04:57:11;;;;;;;7.25;3.70;;;10.20;99.90;;;;;;5014769;28;20468;-77
2022/05/24 04:59:39;;;;;;;7.10;3.75;;;10.10;99.90;;;;;;4996557;28;20053;-77
2022/05/24 05:02:06;;;;;;;6.50;3.75;;;10.10;99.90;;;;;;5015284;28;20045;-78
2022/05/24 05:04:35;;;;;;;8.52;4.45;;;10.10;99.90;;;;;;5014007;28;20045;-78
2022/05/24 05:07:03;;;;;;;7.78;4.13;;;10.20;99.90;;;;;;5014854;28;20050;-76
2022/05/24 05:09:35;;;;;;;7.53;3.65;;;10.20;99.90;;;;;;5014643;28;20065;-78
2022/05/24 05:12:05;;;;;;;8.07;4.20;;;10.20;99.90;;;;;;5013919;28;20483;-77
2022/05/24 05:14:33;;;;;;;9.32;4.28;;;10.30;99.90;;;;;;5014712;28;20046;-79
2022/05/24 05:17:01;;;;;;;6.68;3.70;;;10.30;99.90;;;;;;4997533;28;20057;-79
2022/05/24 05:19:29;;;;;;;8.15;3.88;;;10.30;99.90;;;;;;5013556;28;20049;-76
2022/05/24 05:21:57;;;;;;;;;;;10.40;99.90;;;;;;5015092;28;20050;-82
2022/05/24 05:24:25;;;;;;;6.57;3.38;;;10.50;99.90;;;;;;4980301;28;19933;-77
2022/05/24 05:26:52;;;;;;;11.27;4.13;;;10.50;99.90;;;;;;5014622;28;20041;-77
2022/05/24 05:31:16;;;;;;;9.85;4.78;;;10.50;99.90;;;;;;5015102;28;20042;-77
2022/05/24 05:32:08;;;;;;;11.32;5.00;;;10.60;99.90;;;;;;5009141;28;20057;-76
2022/05/24 05:34:35;;;;;;;8.82;4.20;;;10.70;99.90;;;;;;5034432;28;20056;-77
2022/05/24 05:37:06;;;;;;;9.88;4.07;;;10.70;99.90;;;;;;5033389;28;20041;-77
2022/05/24 05:39:36;;;;;;;9.15;3.80;;;10.80;99.90;;;;;;5032575;28;20053;-79
2022/05/24 05:42:04;;;;;;;5.40;3.60;;;10.80;99.90;;;;;;5038063;28;20052;-78
2022/05/24 05:44:31;;;;;;;;;;;10.80;99.90;;;;;;5037482;28;20052;-77
2022/05/24 05:46:59;;;;;;;8.48;5.13;;;11.70;99.90;;;;;;5037879;28;19925;-80
2022/05/24 05:49:26;;;;;;;12.38;4.40;;;11.00;99.90;;;;;;5036916;28;20056;-77
2022/05/24 05:51:54;;;;;;;13.27;4.35;;;11.00;99.90;;;;;;5037185;28;20045;-77
2022/05/24 05:54:23;;;;;;;7.88;3.60;;;11.00;99.90;;;;;;5037847;28;20456;-77
2022/05/24 05:56:51;;;;;;;8.07;4.55;;;11.10;99.90;;;;;;5036825;28;20045;-77
2022/05/24 05:59:19;;;;;;;6.05;3.85;;;11.20;99.90;;;;;;5036719;28;20056;-77
2022/05/24 06:01:50;;;;;;;5.68;4.03;;;11.20;99.90;;;;;;5037894;28;20045;-78
2022/05/24 06:04:17;;;;;;;5.72;4.00;;;11.20;99.90;;;;;;5037249;28;20128;-77
2022/05/24 06:06:45;;;;;;;7.15;4.03;;;11.30;99.90;;;;;;5035842;28;20045;-77
2022/05/24 06:09:13;;;;;;;5.72;3.75;;;11.40;99.90;;;;;;5037691;28;20053;-77
2022/05/24 06:11:42;;;;;;;8.07;4.20;;;11.40;99.90;;;;;;5036643;28;20460;-77
2022/05/24 06:14:10;;;;;;;;;;;11.50;99.90;;;;;;5036900;28;20049;-77
2022/05/24 06:16:38;;;;;;;8.27;4.13;;;11.60;99.90;;;;;;5037599;28;19925;-77
2022/05/24 06:19:06;;;;;;;7.00;4.00;;;11.60;99.90;;;;;;5036365;28;20046;-78
2022/05/24 06:21:34;;;;;;;7.50;3.85;;;11.70;99.90;;;;;;5036702;28;20464;-77
2022/05/24 06:24:06;;;;;;;5.47;3.90;;;11.70;99.90;;;;;;5037416;28;20046;-78
2022/05/24 06:26:35;;;;;;;6.75;4.10;;;11.80;99.90;;;;;;5052040;28;20041;-78
2022/05/24 06:29:05;;;;;;;8.07;4.18;;;11.80;99.90;;;;;;5036260;28;20042;-76
2022/05/24 06:31:33;;;;;;;8.82;4.20;;;11.80;99.90;;;;;;5035236;28;20065;-76
2022/05/24 06:34:00;;;;;;;5.28;3.38;;;11.80;99.90;;;;;;5037558;28;20045;-77
2022/05/24 06:36:28;;;;;;;4.93;3.35;;;11.80;99.90;;;;;;5037050;28;20511;-77
2022/05/24 06:38:55;;;;;;;4.82;3.15;;;11.80;99.90;;;;;;5035892;28;20046;-78
2022/05/24 06:41:23;;;;;;;;;;;11.70;99.90;;;;;;5038028;28;20054;-78
2022/05/24 06:43:54;;;;;;;5.20;2.70;;;11.70;99.90;;;;;;5036935;28;20263;-77
2022/05/24 06:46:21;;;;;;;5.55;2.80;;;11.60;99.90;;;;;;5035140;28;20045;-77
2022/05/24 06:48:50;;;;;;;4.05;3.30;;;11.60;99.90;;;;;;5037108;28;20045;-76
2022/05/24 06:51:21;;;;;;;7.55;4.22;;;11.50;99.90;;;;;;5049938;28;20046;-78
2022/05/24 06:53:50;;;;;;;6.72;3.55;;;11.40;99.90;;;;;;5035533;28;20052;-73
2022/05/24 06:56:18;;;;;;;8.68;3.33;;;11.40;99.90;;;;;;5035898;28;20053;-77
2022/05/24 06:58:46;;;;;;;4.35;3.03;;;11.50;99.90;;;;;;5035426;28;20056;-78
2022/05/24 07:04:02;;;;;;;4.35;2.10;;;11.90;99.90;;;;;;5036493;28;20050;-76
2022/05/24 07:06:33;;;;;;;4.28;2.00;;;12.20;99.90;;;;;;5035319;28;20052;-76
2022/05/24 07:09:00;;;;;;;4.03;2.05;;;12.40;99.90;;;;;;5036422;28;20045;-76
2022/05/24 07:11:28;;;;;;;3.60;1.88;;;12.60;99.90;;;;;;5035314;28;20052;-76
2022/05/24 07:13:55;;;;;;;4.25;1.85;;;12.60;99.90;;;;;;5036434;28;20053;-77
2022/05/24 07:16:23;;;;;;;5.32;2.13;;;12.60;99.90;;;;;;5035624;28;20045;-77
2022/05/24 07:18:50;;;;;;;6.82;2.47;;;12.50;99.90;;;;;;5034780;28;20042;-76
2022/05/24 07:21:18;;;;;;;4.47;2.80;;;12.30;99.90;;;;;;5036045;28;20041;-76
2022/05/24 07:23:46;;;;;;;6.90;3.13;;;12.00;99.90;;;;;;5035922;28;20049;-77
2022/05/24 07:26:17;;;;;;;4.93;2.90;;;11.90;99.90;;;;;;5034769;28;20037;-77
2022/05/24 07:29:04;;;;;;;10.48;4.40;;;11.80;99.90;;;;;;5035754;28;20041;-78
2022/05/24 07:31:32;;;;;;;7.50;3.78;;;11.80;99.90;;;;;;5031062;28;20069;-78
2022/05/24 07:34:01;;;;;;;7.65;3.80;;;11.70;99.90;;;;;;5008221;28;20060;-76
2022/05/24 07:36:29;;;;;;;10.88;6.15;;;11.60;99.90;;;;;;5035204;28;20057;-76
2022/05/24 07:38:58;;;;;;;6.97;3.53;;;11.60;99.90;;;;;;5021078;28;20479;-75
2022/05/24 07:46:58;;;;;;;5.53;4.15;;;11.60;99.90;;;;;;5026477;28;20053;-80
2022/05/24 07:49:26;;;;;;;7.22;4.28;;;11.80;99.90;;;;;;5011513;28;20046;-77
2022/05/24 07:51:53;;;;;;;8.27;4.63;;;11.90;99.90;;;;;;5024585;28;20053;-80
2022/05/24 07:54:21;;;;;;;5.93;3.53;;;12.00;99.90;;;;;;5035886;28;20053;-77
2022/05/24 07:56:54;;;;;;;7.25;3.33;;;12.00;99.90;;;;;;5016644;28;20064;-84
2022/05/24 07:59:22;;;;;;;6.03;3.38;;;12.00;99.90;;;;;;5014309;28;20046;-79
2022/05/24 08:01:49;;;;;;;5.93;3.08;;;11.90;99.90;;;;;;4982692;28;20046;-78
2022/05/24 08:04:18;;;;;;;5.10;2.90;;;11.90;99.90;;;;;;5015619;28;20053;-78
2022/05/24 08:06:46;;;;;;;5.07;3.08;;;11.90;99.90;;;;;;5015087;28;20042;-78
2022/05/24 08:09:14;;;;;;;4.30;2.85;;;12.10;99.90;;;;;;5015586;28;20054;-79
2022/05/24 08:11:42;;;;;;;4.40;2.33;;;12.30;99.90;;;;;;5014465;28;20369;-80
2022/05/24 08:14:09;;;;;;;6.97;3.38;;;12.50;99.90;;;;;;4998188;28;20049;-80
2022/05/24 08:16:37;;;;;;;4.00;2.83;;;12.70;99.90;;;;;;4998558;28;20464;-80
2022/05/24 08:19:05;;;;;;;8.15;2.63;;;12.90;99.90;;;;;;4996888;28;20044;-79
2022/05/24 08:21:32;;;;;;;10.38;2.63;;;12.90;99.90;;;;;;4982317;28;20042;-82
2022/05/24 08:24:03;;;;;;;5.70;2.70;;;12.80;99.90;;;;;;4998055;28;20061;-81
2022/05/24 08:26:31;;;;;;;5.50;3.53;;;12.50;99.90;;;;;;5014221;28;20053;-82
2022/05/24 08:28:59;;;;;;;5.07;3.70;;;12.20;99.90;;;;;;4981930;28;20550;-82
2022/05/24 08:31:28;;;;;;;8.82;3.70;;;12.10;99.90;;;;;;5025356;28;20131;-81
2022/05/24 08:33:56;;;;;;;6.50;3.80;;;12.00;99.90;;;;;;5017898;28;20372;-80
2022/05/24 08:36:24;;;;;;;9.77;5.40;;;11.90;99.90;;;;;;5035290;28;20054;-82
2022/05/24 08:38:51;;;;;;;7.35;3.97;;;11.80;99.90;;;;;;5016668;28;20052;-81
2022/05/24 08:41:56;;;;;;;9.95;4.50;;;11.80;99.90;;;;;;5017696;28;20049;-80
2022/05/24 08:50:32;;;;;;;4.05;1.83;;;12.40;99.90;;;;;;5017315;28;20072;-83
2022/05/24 08:53:06;;;;;;;4.88;1.90;;;12.60;99.90;;;;;;5016506;28;20045;-81
2022/05/24 08:55:40;;;;;;;2.63;1.85;;;12.80;99.90;;;;;;5018010;28;20042;-80
2022/05/24 08:58:25;;;;;;;5.38;1.88;;;12.90;99.90;;;;;;5033464;28;20041;-82
2022/05/24 09:00:52;;;;;;;4.53;1.60;;;13.10;99.90;;;;;;5000810;28;20064;-79
2022/05/24 09:03:24;;;;;;;3.55;1.75;;;13.20;99.90;;;;;;5017991;28;20053;-70
2022/05/24 09:05:58;;;;;;;2.95;1.40;;;13.40;99.90;;;;;;5033687;28;20045;-82
2022/05/24 09:09:04;;;;;;;4.60;1.40;;;13.50;99.90;;;;;;5017508;28;20068;-83
2022/05/24 09:12:08;;;;;;;2.45;1.02;;;13.70;99.90;;;;;;5034002;28;20060;-82
2022/05/24 09:14:51;;;;;;;3.67;1.52;;;13.80;99.90;;;;;;5035177;28;20048;-81
2022/05/24 09:17:43;;;;;;;2.78;1.30;;;13.80;99.90;;;;;;5038463;28;20037;-82
2022/05/24 09:20:26;;;;;;;4.68;1.30;;;13.90;99.90;;;;;;5004782;28;20060;-82
2022/05/24 09:23:03;;;;;;;3.40;0.93;;;13.90;99.90;;;;;;5021261;28;20045;-82
2022/05/24 09:25:50;;;;;;;3.92;0.98;;;13.90;99.90;;;;;;5037473;28;20049;-83
2022/05/24 09:28:18;;;;;;;3.42;0.80;;;13.90;99.90;;;;;;5005332;28;20049;-83
2022/05/24 09:30:46;;;;;;;3.22;1.00;;;14.00;99.90;;;;;;5038790;28;20046;-82
2022/05/24 09:33:23;;;;;;;1.83;0.93;;;14.10;99.90;;;;;;5037083;28;20057;-82
2022/05/24 09:35:57;;;;;;;3.35;1.10;;;14.60;99.90;;;;;;5021041;28;20057;-82
2022/05/24 09:38:37;;;;;;;3.30;0.90;;;14.40;99.90;;;;;;5037057;28;20053;-82
2022/05/24 09:41:18;;;;;;;3.80;0.80;;;14.40;99.90;;;;;;5021260;28;20053;-82
2022/05/24 09:44:03;;;;;;;2.53;0.80;;;14.50;99.90;;;;;;5004229;28;20060;-82
2022/05/24 09:46:36;;;;;;;2.15;0.68;;;14.60;99.90;;;;;;5019845;28;20060;-82
2022/05/24 09:49:26;;;;;;;2.13;0.60;;;14.40;99.90;;;;;;5038283;28;20054;-82
2022/05/24 09:51:56;;;;;;;2.00;0.65;;;14.60;99.90;;;;;;5008299;28;20060;-83
2022/05/24 09:54:28;;;;;;;1.85;0.60;;;14.60;99.90;;;;;;5038088;28;20060;-83
2022/05/24 09:57:03;;;;;;;2.83;0.90;;;14.50;99.90;;;;;;5020795;28;20360;-80
2022/05/24 09:59:33;;;;;;;2.25;0.80;;;14.40;99.90;;;;;;5035988;28;20461;-82
2022/05/24 10:02:02;;;;;;;2.72;1.20;;;14.30;99.90;;;;;;5020571;28;20041;-82
2022/05/24 10:04:36;;;;;;;4.82;1.20;;;14.20;99.90;;;;;;5018855;28;20068;-83
2022/05/24 10:07:25;;;;;;;2.70;0.82;;;14.20;99.90;;;;;;5019847;28;20049;-82
2022/05/24 10:10:26;;;;;;;1.85;0.80;;;14.20;99.90;;;;;;5003587;28;20057;-84
2022/05/24 10:13:22;;;;;;;1.85;0.73;;;14.40;99.90;;;;;;5021932;28;20468;-82
2022/05/24 10:16:30;;;;;;;5.15;0.90;;;14.40;99.90;;;;;;5037023;28;20076;-83
2022/05/24 10:19:34;;;;;;;2.28;0.80;;;14.50;99.90;;;;;;5007799;28;20046;-82
2022/05/24 10:22:32;;;;;;;2.30;0.70;;;14.60;99.90;;;;;;5003430;28;20056;-83
2022/05/24 10:25:18;;;;;;;1.98;0.73;;;14.80;99.90;;;;;;5036308;28;20057;-83
2022/05/24 10:27:59;;;;;;;4.72;0.88;;;15.00;99.90;;;;;;5017745;28;20056;-81
2022/05/24 10:30:57;;;;;;;4.72;0.60;;;15.40;99.90;;;;;;5036803;28;20060;-79
2022/05/24 10:40:10;;;;;;;2.22;0.57;;;15.80;99.90;;;;;;5023022;28;20092;-75
2022/05/24 10:42:58;;;;;;;1.70;0.60;;;16.00;99.90;;;;;;5036229;28;20048;-78
2022/05/24 10:45:51;;;;;;;1.30;0.60;;;16.20;99.90;;;;;;5019242;28;20061;-76
2022/05/24 10:48:55;;;;;;;2.35;0.60;;;16.20;99.90;;;;;;5016966;28;20045;-78
2022/05/24 10:51:36;;;;;;;1.85;0.80;;;16.20;99.90;;;;;;5015900;28;20057;-76
2022/05/24 10:54:12;;;;;;;2.53;0.80;;;16.10;99.90;;;;;;5017553;28;20053;-82
2022/05/24 10:57:01;;;;;;;2.28;0.57;;;16.00;99.90;;;;;;4999956;28;20056;-83
2022/05/24 11:00:03;;;;;;;1.48;0.70;;;15.80;99.90;;;;;;5028924;28;20049;-81
2022/05/24 11:02:42;;;;;;;2.50;0.80;;;15.70;99.90;;;;;;5025466;28;20037;-83
2022/05/24 11:05:16;;;;;;;1.92;0.68;;;15.70;99.90;;;;;;5015760;28;20042;-79
2022/05/24 11:07:48;;;;;;;2.67;0.65;;;15.70;99.90;;;;;;4999374;28;20042;-80
2022/05/24 11:10:27;;;;;;;1.75;0.50;;;15.70;99.90;;;;;;5029317;28;20045;-78
2022/05/24 11:13:01;;;;;;;3.30;0.70;;;15.80;99.90;;;;;;5035384;28;20049;-79
2022/05/24 11:15:42;;;;;;;2.10;0.70;;;15.80;99.90;;;;;;5036626;28;20068;-80
2022/05/24 11:18:23;;;;;;;2.00;0.70;;;15.90;99.90;;;;;;5035355;28;20064;-76
2022/05/24 11:20:59;;;;;;;2.22;1.05;;;16.20;99.90;;;;;;5036713;28;20116;-77
2022/05/24 11:23:36;;;;;;;2.05;0.63;;;16.50;99.90;;;;;;5036277;28;20045;-77
2022/05/24 11:26:24;;;;;;;2.15;0.55;;;16.90;99.90;;;;;;5035164;28;20052;-75
2022/05/24 11:29:15;;;;;;;4.50;0.85;;;17.20;99.90;;;;;;5018865;28;20056;-86
2022/05/24 11:31:47;;;;;;;1.95;0.80;;;17.40;99.90;;;;;;5023672;28;20064;-87
2022/05/24 11:34:24;;;;;;;2.10;0.68;;;17.60;99.90;;;;;;5055202;28;20056;-82
2022/05/24 11:37:24;;;;;;;2.58;0.60;;;17.70;99.90;;;;;;5035233;28;20045;-75
2022/05/24 11:39:53;;;;;;;7.07;1.52;;;17.50;99.90;;;;;;5032750;28;20054;-76
2022/05/24 11:42:34;;;;;;;6.53;0.93;;;17.00;99.90;;;;;;5035567;28;20045;-79
2022/05/24 11:45:30;;;;;;;5.38;1.05;;;15.70;99.90;;;;;;5033576;28;20042;-75
2022/05/24 11:48:18;;;;;;;7.00;1.33;;;14.00;99.90;;;;;;5035509;28;20048;-78
2022/05/24 11:50:50;;;;;;;6.15;0.82;;;12.70;99.90;;;;;;5035484;28;20049;-78
2022/05/24 11:53:19;;;;;;;3.28;0.70;;;12.00;99.90;;;;;;5049837;28;20046;-78
2022/05/24 11:56:00;;;;;;;2.88;0.65;;;11.50;99.90;;;;;;5035183;28;20060;-78
2022/05/24 11:58:30;;;;;;;1.75;0.52;;;11.10;99.90;;;;;;5034284;28;20055;-77
2022/05/24 12:01:01;;;;;;;1.27;0.70;;;11.00;99.90;;;;;;5035175;28;20042;-76
2022/05/24 12:09:53;;;;;;;2.47;0.80;;;11.10;99.90;;;;;;5035395;28;20041;-78
2022/05/24 12:12:36;;;;;;;4.13;1.02;;;11.30;99.90;;;;;;5033294;28;20049;-78
2022/05/24 12:15:24;;;;;;;2.42;1.00;;;11.30;99.90;;;;;;5051502;28;20046;-77
2022/05/24 12:18:16;;;;;;;4.10;1.02;;;11.40;99.90;;;;;;5034361;28;20052;-77
2022/05/24 12:20:43;;;;;;;5.93;1.75;;;11.50;99.90;;;;;;5035205;28;20049;-78
2022/05/24 12:23:29;;;;;;;7.07;2.53;;;11.60;99.90;;;;;;5035461;28;20045;-78
2022/05/24 12:26:03;;;;;;;6.30;1.48;;;11.60;99.90;;;;;;5034300;28;20037;-77
2022/05/24 12:28:37;;;;;;;4.97;1.42;;;11.80;99.90;;;;;;5035166;28;20057;-75
2022/05/24 12:31:13;;;;;;;2.95;1.48;;;12.00;99.90;;;;;;5033792;28;20367;-75
2022/05/24 12:33:54;;;;;;;2.83;1.63;;;12.20;99.90;;;;;;5034951;28;20060;-75
2022/05/24 12:36:40;;;;;;;4.72;2.55;;;12.50;99.90;;;;;;5035117;28;20046;-75
2022/05/24 12:39:27;;;;;;;3.97;1.58;;;12.70;99.90;;;;;;5033715;28;20049;-75
2022/05/24 12:42:00;;;;;;;5.53;2.47;;;12.80;99.90;;;;;;5035179;28;20048;-75
2022/05/24 12:44:38;;;;;;;4.40;1.60;;;12.90;99.90;;;;;;5032868;28;20045;-75
2022/05/24 12:47:06;;;;;;;1.75;0.93;;;12.90;99.90;;;;;;5034949;28;20046;-74
2022/05/24 12:49:55;;;;;;;3.08;1.40;;;12.90;99.90;;;;;;5034238;28;20057;-75
2022/05/24 12:52:40;;;;;;;2.65;0.50;;;12.90;99.90;;;;;;5033723;28;20053;-75
2022/05/24 12:55:19;;;;;;;1.88;0.80;;;12.90;99.90;;;;;;5034108;28;20049;-75
2022/05/24 12:57:47;;;;;;;2.20;1.00;;;12.70;99.90;;;;;;5033532;28;20056;-75
2022/05/24 13:00:25;;;;;;;3.83;0.90;;;12.80;99.90;;;;;;5033497;28;20052;-75
2022/05/24 13:02:54;;;;;;;1.95;0.60;;;12.90;99.90;;;;;;5034732;28;20041;-75
2022/05/24 13:05:43;;;;;;;1.67;0.80;;;13.10;99.90;;;;;;5033358;28;20045;-75
2022/05/24 13:08:11;;;;;;;1.52;0.60;;;13.30;99.90;;;;;;5034499;28;20112;-75
2022/05/24 13:10:45;;;;;;;1.90;0.50;;;13.50;99.90;;;;;;5034689;28;20329;-75
2022/05/24 13:13:18;;;;;;;2.20;0.47;;;13.80;99.90;;;;;;5033408;28;20487;-75
2022/05/24 13:15:59;;;;;;;1.75;0.38;;;14.00;99.90;;;;;;5050341;28;20041;-75
2022/05/24 13:18:33;;;;;;;2.35;0.60;;;14.30;99.90;;;;;;5033569;28;20049;-75
2022/05/24 13:21:02;;;;;;;2.67;1.15;;;14.60;99.90;;;;;;5034202;28;20045;-75
2022/05/24 13:23:33;;;;;;;2.67;0.60;;;15.00;99.90;;;;;;5034332;28;20045;-75
2022/05/24 13:26:04;;;;;;;2.08;0.70;;;15.50;99.90;;;;;;5033498;28;20049;-75
2022/05/24 13:28:45;;;;;;;1.00;0.50;;;16.60;99.90;;;;;;5033767;28;20046;-76
2022/05/24 13:34:13;;;;;;;2.42;1.40;;;17.20;99.90;;;;;;5014982;28;20054;-75
2022/05/24 13:36:47;;;;;;;4.28;1.08;;;16.80;99.90;;;;;;5014612;28;20058;-75
2022/05/24 13:39:24;;;;;;;1.70;0.60;;;16.40;99.90;;;;;;5013603;28;20050;-75
2022/05/24 13:42:05;;;;;;;4.40;0.93;;;16.10;99.90;;;;;;5014578;28;20484;-75
2022/05/24 13:45:14;;;;;;;2.00;0.60;;;15.80;99.90;;;;;;5013817;28;20052;-76
2022/05/24 13:47:46;;;;;;;2.72;0.70;;;15.60;99.90;;;;;;5014560;28;20412;-75
2022/05/24 13:50:29;;;;;;;3.75;0.70;;;15.60;99.90;;;;;;4997317;28;20049;-75
2022/05/24 13:53:06;;;;;;;1.13;0.60;;;15.50;99.90;;;;;;5013320;28;20049;-75
2022/05/24 13:55:38;;;;;;;3.28;0.80;;;15.40;99.90;;;;;;4997677;28;20050;-75
2022/05/24 13:58:10;;;;;;;2.92;0.75;;;15.30;99.90;;;;;;4996427;28;20054;-75
2022/05/24 14:00:51;;;;;;;1.65;0.75;;;15.20;99.90;;;;;;5015092;28;20042;-75
2022/05/24 14:03:25;;;;;;;2.28;0.80;;;15.90;99.90;;;;;;5001617;28;20038;-75
2022/05/24 14:06:27;;;;;;;5.95;0.75;;;17.30;99.90;;;;;;5016997;28;20461;-75
2022/05/24 14:08:56;;;;;;;1.75;0.60;;;19.20;99.90;;;;;;4993454;28;20050;-75